Time;durP1;ratioP1;P1;durP2;ratioP2;P2;SDS_P1;SDS_P2;PMS_P1;PMS_P2;Temp;Humidity;BMP_temperature;BMP_pressure;BME280_temperature;BME280_humidity;BME280_pressure;Samples;Min_cycle;Max_cycle;Signal;HPM_P1;HPM_P2
2022/10/09 00:00:08;;;;;;;;;;;;;;;16.51;57.89;101066.09;5056912;28;1239;-57
2022/10/09 00:02:37;;;;;;;;;;;;;;;16.34;57.73;101066.28;5066597;28;1972;-57
2022/10/09 00:05:02;;;;;;;;;;;;;;;16.54;58.27;101063.66;5060392;28;2679;-58
2022/10/09 00:07:28;;;;;;;;;;;;;;;17.54;56.40;101058.25;5071436;28;1142;-57
2022/10/09 00:09:53;;;;;;;;;;;;;;;16.80;57.88;101049.22;5057609;28;1139;-57
2022/10/09 00:12:19;;;;;;;;;;;;;;;16.52;57.57;101043.03;5072488;28;1139;-56
2022/10/09 00:14:44;;;;;;;;;;;;;;;16.37;57.56;101041.06;5076905;28;867;-55
2022/10/09 00:17:09;;;;;;;;;;;;;;;16.24;57.45;101034.94;5076842;28;1197;-56
2022/10/09 00:19:35;;;;;;;;;;;;;;;16.49;58.10;101043.59;5076957;28;1138;-57
2022/10/09 00:22:00;;;;;;;;;;;;;;;17.38;56.74;101041.72;5076619;28;1906;-56
2022/10/09 00:24:26;;;;;;;;;;;;;;;16.71;57.80;101044.25;5076486;28;1098;-56
2022/10/09 00:26:51;;;;;;;;;;;;;;;16.48;57.59;101036.44;5076280;28;907;-56
2022/10/09 00:29:17;;;;;;;;;;;;;;;16.31;57.54;101037.44;5076724;28;1091;-56
2022/10/09 00:31:42;;;;;;;;;;;;;;;16.18;57.40;101032.44;5077295;28;1193;-57
2022/10/09 00:34:08;;;;;;;;;;;;;;;16.67;57.84;101028.56;5067205;28;2427;-56
2022/10/09 00:36:33;;;;;;;;;;;;;;;17.43;56.57;101028.00;5070694;28;1197;-57
2022/10/09 00:38:59;;;;;;;;;;;;;;;16.70;57.87;101028.84;5056509;28;856;-57
2022/10/09 00:41:25;;;;;;;;;;;;;;;16.42;57.67;101033.69;5073531;28;1969;-57
2022/10/09 00:43:52;;;;;;;;;;;;;;;16.31;57.56;101033.88;5076376;28;1213;-57
2022/10/09 00:46:33;;;;;;;;;;;;;;;16.18;57.29;101029.69;5076137;28;1238;-57
2022/10/09 00:49:08;;;;;;;;;;;;;;;17.07;57.49;101033.41;5076349;28;1099;-57
2022/10/09 00:51:34;;;;;;;;;;;;;;;17.27;56.87;101040.06;5058320;28;1087;-57
2022/10/09 00:54:00;;;;;;;;;;;;;;;16.69;57.60;101040.94;5076543;28;1142;-57
2022/10/09 00:56:25;;;;;;;;;;;;;;;16.47;57.42;101032.06;5076302;28;1166;-57
2022/10/09 00:58:51;;;;;;;;;;;;;;;16.32;57.60;101030.88;5074548;28;1083;-57
2022/10/09 01:01:17;;;;;;;;;;;;;;;16.22;57.20;101030.81;5058337;28;1910;-57
2022/10/09 01:03:42;;;;;;;;;;;;;;;17.18;57.14;101028.78;5070184;28;2576;-56
2022/10/09 01:06:08;;;;;;;;;;;;;;;17.24;56.72;101026.88;5075872;28;1155;-56
2022/10/09 01:08:37;;;;;;;;;;;;;;;16.71;57.69;101027.75;5075941;28;1099;-56
2022/10/09 01:11:09;;;;;;;;;;;;;;;16.48;57.51;101034.53;5058144;28;1210;-56
2022/10/09 01:13:40;;;;;;;;;;;;;;;16.31;57.52;101026.47;5075771;28;1185;-56
2022/10/09 01:16:07;;;;;;;;;;;;;;;16.38;57.56;101034.47;5061653;28;1178;-56
2022/10/09 01:18:41;;;;;;;;;;;;;;;17.62;56.37;101019.19;5067118;28;1205;-57
2022/10/09 01:21:13;;;;;;;;;;;;;;;16.80;57.63;101030.00;5075770;28;1906;-57
2022/10/09 01:23:57;;;;;;;;;;;;;;;16.51;57.80;101024.91;5076023;28;1169;-56
2022/10/09 01:26:22;;;;;;;;;;;;;;;16.35;57.60;101016.59;5070275;28;1190;-57
2022/10/09 01:28:50;;;;;;;;;;;;;;;16.23;57.31;101016.00;5067189;28;1197;-57
2022/10/09 01:31:15;;;;;;;;;;;;;;;17.02;57.24;101019.66;5057868;28;1150;-56
2022/10/09 01:33:41;;;;;;;;;;;;;;;17.18;57.06;101022.44;5075610;28;1836;-56
2022/10/09 01:36:06;;;;;;;;;;;;;;;16.68;57.72;101025.56;5075337;28;1178;-56
2022/10/09 01:38:32;;;;;;;;;;;;;;;16.40;57.76;101019.38;5075307;28;1193;-56
2022/10/09 01:40:57;;;;;;;;;;;;;;;16.25;57.38;101014.63;5075607;28;1905;-56
2022/10/09 01:43:22;;;;;;;;;;;;;;;16.90;57.56;101013.56;5057848;28;1285;-56
2022/10/09 01:45:48;;;;;;;;;;;;;;;17.35;56.36;101006.53;5075446;28;1162;-56
2022/10/09 01:48:18;;;;;;;;;;;;;;;16.70;57.80;101006.88;5075839;28;1181;-56
2022/10/09 01:50:44;;;;;;;;;;;;;;;16.51;57.49;101013.94;5075638;28;1210;-55
2022/10/09 01:53:11;;;;;;;;;;;;;;;16.32;57.46;101008.09;5057886;28;1147;-56
2022/10/09 01:55:56;;;;;;;;;;;;;;;16.22;57.26;101006.13;5074265;28;1162;-55
2022/10/09 01:58:35;;;;;;;;;;;;;;;17.58;56.41;101007.09;5057252;28;1307;-56
2022/10/09 02:01:03;;;;;;;;;;;;;;;16.83;57.45;101015.72;5074406;28;1960;-55
2022/10/09 02:03:29;;;;;;;;;;;;;;;16.51;57.68;101019.44;5074612;28;2514;-55
2022/10/09 02:05:54;;;;;;;;;;;;;;;16.40;57.11;101019.38;5078272;28;1103;-55
2022/10/09 02:08:20;;;;;;;;;;;;;;;16.18;57.34;101014.03;5078125;28;1115;-56
2022/10/09 02:10:46;;;;;;;;;;;;;;;16.46;57.75;101022.97;5079260;28;1166;-56
2022/10/09 02:13:11;;;;;;;;;;;;;;;17.27;56.51;101026.31;5078017;28;1131;-56
2022/10/09 02:15:39;;;;;;;;;;;;;;;16.63;57.42;101028.28;5061987;28;1044;-57
2022/10/09 02:18:07;;;;;;;;;;;;;;;16.36;57.36;101018.25;5074385;28;1197;-56
2022/10/09 02:20:33;;;;;;;;;;;;;;;17.13;57.15;101026.00;5061635;28;1127;-56
2022/10/09 02:22:59;;;;;;;;;;;;;;;16.98;57.01;101026.78;5061117;28;1984;-56
2022/10/09 02:25:24;;;;;;;;;;;;;;;16.54;57.72;101022.47;5061581;28;1242;-56
2022/10/09 02:27:50;;;;;;;;;;;;;;;16.37;57.40;101017.19;5079000;28;1186;-56
2022/10/09 02:30:15;;;;;;;;;;;;;;;16.21;57.21;101020.91;5079452;28;1201;-56
2022/10/09 02:32:41;;;;;;;;;;;;;;;16.24;57.50;101020.38;5077993;28;1422;-56
2022/10/09 02:35:07;;;;;;;;;;;;;;;17.70;55.90;101018.66;5078068;28;1143;-56
2022/10/09 02:37:32;;;;;;;;;;;;;;;16.90;57.23;101021.81;5079361;28;1158;-56
2022/10/09 02:39:58;;;;;;;;;;;;;;;16.55;57.32;101020.53;5078901;28;1146;-56
2022/10/09 02:42:24;;;;;;;;;;;;;;;16.35;57.22;101026.75;5079168;28;1909;-56
2022/10/09 02:44:50;;;;;;;;;;;;;;;16.50;57.80;101026.03;5079114;28;1193;-57
2022/10/09 02:47:16;;;;;;;;;;;;;;;17.64;55.82;101030.75;5079203;28;1255;-56
2022/10/09 02:49:41;;;;;;;;;;;;;;;16.82;57.24;101025.06;5078803;28;1150;-56
2022/10/09 02:52:06;;;;;;;;;;;;;;;16.54;57.52;101029.91;5078656;28;957;-57
2022/10/09 02:54:32;;;;;;;;;;;;;;;16.39;57.25;101025.97;5077930;28;1221;-56
2022/10/09 02:56:57;;;;;;;;;;;;;;;16.22;57.41;101033.56;5079017;28;1237;-56
2022/10/09 02:59:23;;;;;;;;;;;;;;;16.40;57.80;101027.63;5078525;28;1092;-56
2022/10/09 03:01:48;;;;;;;;;;;;;;;17.85;55.39;101039.84;5078727;28;1968;-56
2022/10/09 03:04:14;;;;;;;;;;;;;;;16.96;57.28;101042.72;5077985;28;1150;-56
2022/10/09 03:06:39;;;;;;;;;;;;;;;16.57;57.44;101043.91;5079079;28;1142;-57
2022/10/09 03:09:05;;;;;;;;;;;;;;;16.42;57.00;101044.66;5078734;28;1202;-57
2022/10/09 03:11:30;;;;;;;;;;;;;;;16.25;57.20;101039.31;5078332;28;1154;-57
2022/10/09 03:13:56;;;;;;;;;;;;;;;17.57;56.07;101046.69;5076914;28;1166;-57
2022/10/09 03:16:22;;;;;;;;;;;;;;;16.95;57.17;101046.56;5077986;28;954;-56
2022/10/09 03:18:47;;;;;;;;;;;;;;;16.56;57.42;101049.66;5064981;28;1111;-59
2022/10/09 03:21:14;;;;;;;;;;;;;;;16.41;57.29;101056.72;5072142;28;1934;-58
2022/10/09 03:23:39;;;;;;;;;;;;;;;16.27;56.92;101047.31;5058103;28;1119;-58
2022/10/09 03:26:05;;;;;;;;;;;;;;;16.15;57.15;101054.91;5076945;28;990;-58
2022/10/09 03:28:31;;;;;;;;;;;;;;;17.10;56.96;101068.59;5077748;28;2218;-58
2022/10/09 03:30:56;;;;;;;;;;;;;;;17.06;56.91;101059.22;5060121;28;1151;-58
2022/10/09 03:33:22;;;;;;;;;;;;;;;16.59;57.74;101057.34;5077671;28;1102;-58
2022/10/09 03:35:47;;;;;;;;;;;;;;;16.37;57.39;101065.75;5077537;28;1146;-58
2022/10/09 03:38:13;;;;;;;;;;;;;;;16.28;57.19;101059.09;5059651;28;1254;-58
2022/10/09 03:40:38;;;;;;;;;;;;;;;17.41;56.54;101065.91;5076984;28;920;-57
2022/10/09 03:43:04;;;;;;;;;;;;;;;17.09;56.88;101064.19;5077421;28;1914;-58
2022/10/09 03:45:29;;;;;;;;;;;;;;;16.65;57.69;101064.53;5077824;28;1146;-58
2022/10/09 03:47:55;;;;;;;;;;;;;;;16.45;57.40;101069.91;5077693;28;1151;-58
2022/10/09 03:50:20;;;;;;;;;;;;;;;16.30;57.25;101068.72;5077711;28;1138;-58
2022/10/09 03:52:45;;;;;;;;;;;;;;;16.18;57.09;101070.84;5075957;28;848;-57
2022/10/09 03:55:11;;;;;;;;;;;;;;;17.08;57.22;101079.03;5076965;28;1126;-56
2022/10/09 03:57:36;;;;;;;;;;;;;;;17.21;57.02;101077.69;5077190;28;1840;-58
2022/10/09 04:00:02;;;;;;;;;;;;;;;16.65;57.61;101082.91;5077033;28;1211;-57
2022/10/09 04:02:30;;;;;;;;;;;;;;;16.46;57.51;101074.31;5077057;28;1906;-58
2022/10/09 04:04:55;;;;;;;;;;;;;;;16.29;57.41;101083.53;5077010;28;952;-57
2022/10/09 04:07:21;;;;;;;;;;;;;;;16.47;57.69;101078.72;5076836;28;1075;-58
2022/10/09 04:09:46;;;;;;;;;;;;;;;17.61;55.99;101075.28;5076913;28;1071;-57
2022/10/09 04:12:12;;;;;;;;;;;;;;;16.76;57.61;101074.47;5077204;28;1138;-57
2022/10/09 04:14:37;;;;;;;;;;;;;;;16.49;57.60;101071.03;5077026;28;1095;-57
2022/10/09 04:17:03;;;;;;;;;;;;;;;16.28;57.78;101062.66;5073311;28;1067;-59
2022/10/09 04:19:28;;;;;;;;;;;;;;;16.22;57.35;101061.00;5076354;28;1159;-59
2022/10/09 04:21:53;;;;;;;;;;;;;;;17.56;56.22;101064.31;5071770;28;1984;-59
2022/10/09 04:24:19;;;;;;;;;;;;;;;16.76;57.81;101071.72;5055894;28;1257;-59
2022/10/09 04:26:44;;;;;;;;;;;;;;;16.51;57.72;101069.69;5057177;28;1801;-60
2022/10/09 04:29:10;;;;;;;;;;;;;;;16.33;57.38;101070.13;5075978;28;1193;-61
2022/10/09 04:31:35;;;;;;;;;;;;;;;16.25;56.94;101079.66;5058555;28;1282;-59
2022/10/09 04:34:01;;;;;;;;;;;;;;;16.40;57.53;101082.50;5076442;28;1226;-59
2022/10/09 04:36:26;;;;;;;;;;;;;;;17.60;55.81;101085.47;5076246;28;1174;-59
2022/10/09 04:38:52;;;;;;;;;;;;;;;16.75;57.32;101083.00;5075942;28;1281;-59
2022/10/09 04:41:17;;;;;;;;;;;;;;;16.48;57.47;101083.94;5075643;28;1909;-60
2022/10/09 04:43:42;;;;;;;;;;;;;;;16.25;57.41;101083.22;5076118;28;1288;-57
2022/10/09 04:46:09;;;;;;;;;;;;;;;16.84;57.46;101086.84;5063545;28;1150;-59
2022/10/09 04:48:38;;;;;;;;;;;;;;;17.28;56.37;101088.44;5038312;28;1227;-58
2022/10/09 04:51:05;;;;;;;;;;;;;;;16.64;57.39;101093.09;5055786;28;1234;-59
2022/10/09 04:53:31;;;;;;;;;;;;;;;16.42;57.24;101095.97;5070079;28;1377;-59
2022/10/09 04:55:56;;;;;;;;;;;;;;;16.28;56.97;101098.34;5075919;28;1253;-58
2022/10/09 04:58:21;;;;;;;;;;;;;;;16.16;57.15;101092.22;5075046;28;1857;-59
2022/10/09 05:00:47;;;;;;;;;;;;;;;16.74;57.16;101100.53;5076381;28;1194;-58
2022/10/09 05:03:12;;;;;;;;;;;;;;;17.24;56.21;101092.81;5065790;28;2001;-58
2022/10/09 05:05:39;;;;;;;;;;;;;;;16.57;57.28;101095.25;5072191;28;1315;-58
2022/10/09 05:08:05;;;;;;;;;;;;;;;16.37;57.13;101091.28;5070818;28;1161;-58
2022/10/09 05:10:31;;;;;;;;;;;;;;;16.22;57.24;101091.19;5076563;28;1194;-58
2022/10/09 05:12:56;;;;;;;;;;;;;;;16.10;56.90;101085.84;5074641;28;1237;-57
2022/10/09 05:15:22;;;;;;;;;;;;;;;16.83;56.91;101098.13;5075760;28;1135;-57
2022/10/09 05:17:47;;;;;;;;;;;;;;;17.48;55.43;101092.34;5074525;28;952;-57
2022/10/09 05:20:13;;;;;;;;;;;;;;;16.70;56.91;101083.75;5075373;28;1087;-57
2022/10/09 05:22:38;;;;;;;;;;;;;;;16.47;57.20;101096.00;5075156;28;1995;-57
2022/10/09 05:25:04;;;;;;;;;;;;;;;16.26;57.13;101089.56;5076260;28;1146;-58
2022/10/09 05:27:29;;;;;;;;;;;;;;;16.18;56.80;101093.59;5076682;28;1831;-58
2022/10/09 05:29:54;;;;;;;;;;;;;;;16.10;56.71;101090.53;5074971;28;962;-57
2022/10/09 05:32:20;;;;;;;;;;;;;;;17.03;56.38;101109.22;5079147;28;1065;-57
2022/10/09 05:34:46;;;;;;;;;;;;;;;17.10;56.34;101106.25;5083685;28;1073;-57
2022/10/09 05:37:11;;;;;;;;;;;;;;;16.82;57.46;101115.72;5077675;28;1130;-57
2022/10/09 05:39:37;;;;;;;;;;;;;;;17.04;55.41;101105.41;5077612;28;1057;-58
2022/10/09 05:42:03;;;;;;;;;;;;;;;16.60;53.53;101111.19;5073826;28;2000;-58
2022/10/09 05:44:28;;;;;;;;;;;;;;;17.32;54.82;101111.53;5075892;28;910;-58
2022/10/09 05:46:54;;;;;;;;;;;;;;;16.66;53.88;101110.13;5076219;28;1150;-59
2022/10/09 05:49:19;;;;;;;;;;;;;;;16.75;53.35;101118.69;5076193;28;1157;-58
2022/10/09 05:51:45;;;;;;;;;;;;;;;17.22;54.19;101116.97;5084682;28;974;-58
2022/10/09 05:54:14;;;;;;;;;;;;;;;16.64;52.77;101123.28;5074850;28;840;-58
2022/10/09 05:56:39;;;;;;;;;;;;;;;18.22;53.39;101123.22;5075996;28;2018;-57
2022/10/09 05:59:05;;;;;;;;;;;;;;;17.29;53.56;101125.81;5075253;28;1262;-58
2022/10/09 06:01:31;;;;;;;;;;;;;;;16.90;51.83;101132.53;5070027;28;1882;-57
2022/10/09 06:03:57;;;;;;;;;;;;;;;16.75;50.51;101130.47;5060873;28;1004;-59
2022/10/09 06:06:23;;;;;;;;;;;;;;;17.59;52.83;101132.50;5075273;28;890;-57
2022/10/09 06:08:49;;;;;;;;;;;;;;;16.99;51.86;101134.78;5075183;28;1177;-58
2022/10/09 06:11:18;;;;;;;;;;;;;;;16.98;51.39;101128.44;5075695;28;1106;-58
2022/10/09 06:13:43;;;;;;;;;;;;;;;17.33;52.03;101148.91;5058229;28;1151;-57
2022/10/09 06:16:10;;;;;;;;;;;;;;;17.07;50.85;101146.06;5075481;28;1173;-58
2022/10/09 06:18:36;;;;;;;;;;;;;;;17.94;52.26;101144.69;5076192;28;895;-58
2022/10/09 06:21:02;;;;;;;;;;;;;;;17.29;52.06;101145.03;5072673;28;1993;-58
2022/10/09 06:23:27;;;;;;;;;;;;;;;17.05;51.73;101151.00;5055240;28;1273;-59
2022/10/09 06:25:56;;;;;;;;;;;;;;;17.92;52.29;101147.72;5054954;28;1325;-59
2022/10/09 06:28:22;;;;;;;;;;;;;;;17.35;51.15;101143.97;5067907;28;2519;-58
2022/10/09 06:30:48;;;;;;;;;;;;;;;17.15;50.26;101143.91;5074918;28;1194;-57
2022/10/09 06:33:13;;;;;;;;;;;;;;;17.86;51.60;101143.25;5075593;28;924;-61
2022/10/09 06:35:39;;;;;;;;;;;;;;;17.35;51.60;101143.13;5075689;28;1203;-59
2022/10/09 06:38:04;;;;;;;;;;;;;;;17.39;51.68;101142.34;5075646;28;1150;-59
2022/10/09 06:40:30;;;;;;;;;;;;;;;18.08;51.64;101145.78;5075407;28;1147;-61
2022/10/09 06:42:55;;;;;;;;;;;;;;;17.43;51.07;101146.22;5057322;28;1988;-60
2022/10/09 06:45:21;;;;;;;;;;;;;;;17.31;49.90;101145.63;5075630;28;1068;-61
2022/10/09 06:47:46;;;;;;;;;;;;;;;17.21;48.99;101142.84;5076571;28;1123;-58
2022/10/09 06:50:12;;;;;;;;;;;;;;;17.25;49.52;101147.53;5071377;28;1064;-60
2022/10/09 06:52:37;;;;;;;;;;;;;;;17.68;50.98;101141.03;5058457;28;1273;-59
2022/10/09 06:55:03;;;;;;;;;;;;;;;17.24;50.23;101139.53;5078520;28;1294;-58
2022/10/09 06:57:28;;;;;;;;;;;;;;;18.22;50.90;101148.00;5078061;28;1816;-59
2022/10/09 06:59:54;;;;;;;;;;;;;;;17.48;50.92;101150.06;5078048;28;1222;-59
2022/10/09 07:02:19;;;;;;;;;;;;;;;17.33;49.58;101157.16;5060360;28;1955;-59
2022/10/09 07:04:45;;;;;;;;;;;;;;;18.06;50.58;101160.91;5059055;28;1249;-59
2022/10/09 07:07:11;;;;;;;;;;;;;;;17.75;50.54;101161.69;5078586;28;1324;-58
2022/10/09 07:09:36;;;;;;;;;;;;;;;17.37;49.93;101155.53;5078488;28;1266;-58
2022/10/09 07:12:02;;;;;;;;;;;;;;;17.41;49.74;101155.81;5078101;28;1174;-58
2022/10/09 07:14:27;;;;;;;;;;;;;;;17.81;50.69;101161.69;5078227;28;1194;-58
2022/10/09 07:16:53;;;;;;;;;;;;;;;17.43;49.85;101161.84;5077850;28;1266;-58
2022/10/09 07:19:18;;;;;;;;;;;;;;;17.25;49.22;101155.75;5077653;28;1380;-56
2022/10/09 07:21:45;;;;;;;;;;;;;;;17.20;48.39;101161.22;5077169;28;1894;-58
2022/10/09 07:24:11;;;;;;;;;;;;;;;17.70;50.12;101167.16;5059814;28;1218;-59
2022/10/09 07:26:37;;;;;;;;;;;;;;;17.38;49.39;101154.44;5077995;28;1253;-57
2022/10/09 07:29:03;;;;;;;;;;;;;;;17.24;48.88;101162.34;5071063;28;1865;-58
2022/10/09 07:31:28;;;;;;;;;;;;;;;17.74;49.70;101160.03;5077571;28;1257;-57
2022/10/09 07:33:55;;;;;;;;;;;;;;;17.39;49.47;101163.50;5078064;28;1261;-58
2022/10/09 07:36:20;;;;;;;;;;;;;;;17.26;48.63;101162.91;5077661;28;1246;-59
2022/10/09 07:38:52;;;;;;;;;;;;;;;17.10;48.27;101164.75;5078335;28;1095;-59
2022/10/09 07:41:18;;;;;;;;;;;;;;;17.89;48.94;101158.41;5077876;28;1902;-62
2022/10/09 07:43:44;;;;;;;;;;;;;;;17.22;49.14;101163.72;5077876;28;1402;-61
2022/10/09 07:46:12;;;;;;;;;;;;;;;17.14;48.55;101155.97;5077692;28;1249;-61
2022/10/09 07:48:38;;;;;;;;;;;;;;;17.08;47.88;101152.38;5067131;28;1257;-59
2022/10/09 07:51:30;;;;;;;;;;;;;;;16.99;47.49;101149.31;5066167;28;1194;-60
2022/10/09 07:53:56;;;;;;;;;;;;;;;18.29;48.36;101151.28;5072800;28;1634;-57
2022/10/09 07:56:31;;;;;;;;;;;;;;;17.43;49.31;101142.63;5077650;28;1162;-59
2022/10/09 07:58:57;;;;;;;;;;;;;;;17.30;48.73;101134.91;5075203;28;2299;-60
2022/10/09 08:01:23;;;;;;;;;;;;;;;17.19;47.94;101145.00;5077467;28;1957;-61
2022/10/09 08:03:48;;;;;;;;;;;;;;;17.00;47.76;101145.50;5045875;28;1218;-62
2022/10/09 08:06:14;;;;;;;;;;;;;;;17.45;48.22;101137.69;5077666;28;899;-61
2022/10/09 08:08:39;;;;;;;;;;;;;;;17.43;49.06;101137.97;5077601;28;1079;-62
2022/10/09 08:11:11;;;;;;;;;;;;;;;17.19;48.69;101142.25;5077197;28;1254;-60
2022/10/09 08:13:37;;;;;;;;;;;;;;;17.14;47.80;101137.59;5076311;28;1181;-62
2022/10/09 08:16:02;;;;;;;;;;;;;;;17.85;48.53;101141.63;5056774;28;1258;-60
2022/10/09 08:18:28;;;;;;;;;;;;;;;17.38;48.81;101137.94;5067909;28;852;-61
2022/10/09 08:20:57;;;;;;;;;;;;;;;17.10;48.79;101137.28;5076989;28;1178;-60
2022/10/09 08:23:22;;;;;;;;;;;;;;;17.37;48.62;101136.28;5076929;28;1913;-59
2022/10/09 08:25:48;;;;;;;;;;;;;;;17.66;49.28;101133.06;5077474;28;1134;-59
2022/10/09 08:28:15;;;;;;;;;;;;;;;17.32;48.92;101139.03;5070272;28;2098;-60
2022/10/09 08:30:40;;;;;;;;;;;;;;;17.11;48.44;101135.38;5076713;28;1131;-60
2022/10/09 08:33:05;;;;;;;;;;;;;;;17.82;48.71;101130.34;5077122;28;1123;-61
2022/10/09 08:35:31;;;;;;;;;;;;;;;17.43;49.31;101124.22;5076847;28;1118;-61
2022/10/09 08:37:56;;;;;;;;;;;;;;;17.41;49.37;101123.66;5076984;28;1505;-59
2022/10/09 08:40:28;;;;;;;;;;;;;;;17.73;50.67;101122.63;5076821;28;1115;-59
2022/10/09 08:42:55;;;;;;;;;;;;;;;15.63;54.83;101111.22;5046274;28;1988;-58
2022/10/09 08:45:20;;;;;;;;;;;;;;;16.66;50.36;101117.53;5076593;28;1118;-58
2022/10/09 08:47:47;;;;;;;;;;;;;;;17.38;50.79;101117.88;5076733;28;1106;-59
2022/10/09 08:50:17;;;;;;;;;;;;;;;17.14;49.89;101112.00;5059025;28;1237;-60
2022/10/09 08:52:45;;;;;;;;;;;;;;;17.04;49.28;101113.63;5076745;28;1106;-60
2022/10/09 08:55:16;;;;;;;;;;;;;;;17.69;49.67;101116.00;5049469;28;1265;-62
2022/10/09 08:57:42;;;;;;;;;;;;;;;17.40;49.44;101115.66;5065104;28;1845;-61
2022/10/09 09:00:12;;;;;;;;;;;;;;;17.19;48.92;101106.53;5058720;28;1286;-62
2022/10/09 09:02:56;;;;;;;;;;;;;;;17.96;49.41;101114.97;5067615;28;1914;-62
2022/10/09 09:05:31;;;;;;;;;;;;;;;17.40;49.85;101122.00;5073421;28;1140;-63
2022/10/09 09:07:59;;;;;;;;;;;;;;;17.27;48.74;101114.25;5075649;28;1156;-63
2022/10/09 09:10:31;;;;;;;;;;;;;;;17.21;48.24;101115.34;5075983;28;1186;-64
2022/10/09 09:13:05;;;;;;;;;;;;;;;17.39;48.40;101112.09;5075899;28;1197;-59
2022/10/09 09:15:31;;;;;;;;;;;;;;;17.46;49.27;101106.34;5044335;28;1250;-62
2022/10/09 09:18:03;;;;;;;;;;;;;;;17.27;48.64;101108.78;5058366;28;1313;-62
2022/10/09 09:20:44;;;;;;;;;;;;;;;17.14;47.94;101099.13;5057777;28;1187;-63
2022/10/09 09:23:11;;;;;;;;;;;;;;;17.30;48.63;101108.22;5075729;28;1918;-63
2022/10/09 09:25:39;;;;;;;;;;;;;;;17.65;49.16;101101.16;5058003;28;1052;-61
2022/10/09 09:28:16;;;;;;;;;;;;;;;17.22;49.01;101100.50;5056039;28;1793;-64
2022/10/09 09:30:43;;;;;;;;;;;;;;;17.16;48.30;101096.91;5075221;28;1266;-66
2022/10/09 09:33:15;;;;;;;;;;;;;;;17.13;47.63;101096.63;5057907;28;1301;-60
2022/10/09 09:35:55;;;;;;;;;;;;;;;17.72;48.92;101098.13;5076079;28;1171;-58
2022/10/09 09:38:21;;;;;;;;;;;;;;;17.31;48.72;101096.13;5075755;28;1099;-60
2022/10/09 09:40:47;;;;;;;;;;;;;;;17.13;48.35;101099.38;5075442;28;1229;-62
2022/10/09 09:43:14;;;;;;;;;;;;;;;17.13;47.63;101102.13;5074991;28;1910;-60
2022/10/09 09:45:40;;;;;;;;;;;;;;;17.06;47.55;101094.94;5075369;28;1206;-61
2022/10/09 09:48:08;;;;;;;;;;;;;;;18.32;47.94;101103.13;5074936;28;1250;-61
2022/10/09 09:50:36;;;;;;;;;;;;;;;17.44;49.07;101097.53;5053526;28;1257;-62
2022/10/09 09:53:04;;;;;;;;;;;;;;;17.23;48.72;101085.66;5051568;28;1273;-61
2022/10/09 09:55:30;;;;;;;;;;;;;;;18.06;48.73;101103.97;5066602;28;1281;-62
2022/10/09 09:57:59;;;;;;;;;;;;;;;17.62;49.53;101090.69;5069277;28;1902;-64
2022/10/09 10:00:25;;;;;;;;;;;;;;;17.41;48.89;101093.41;5074209;28;1159;-64
2022/10/09 10:03:00;;;;;;;;;;;;;;;17.30;48.00;101094.47;5075003;28;1975;-65
2022/10/09 10:05:26;;;;;;;;;;;;;;;17.14;48.21;101076.28;5071098;28;1103;-62
2022/10/09 10:07:51;;;;;;;;;;;;;;;17.88;48.71;101098.97;5070312;28;1211;-59
2022/10/09 10:10:23;;;;;;;;;;;;;;;17.47;48.88;101096.19;5075281;28;1202;-58
2022/10/09 10:12:53;;;;;;;;;;;;;;;17.30;48.18;101090.91;5075403;28;1412;-59
2022/10/09 10:15:25;;;;;;;;;;;;;;;17.22;47.84;101100.50;5075013;28;1315;-58
2022/10/09 10:18:14;;;;;;;;;;;;;;;17.23;47.39;101093.91;5056123;28;1277;-56
2022/10/09 10:20:46;;;;;;;;;;;;;;;18.00;48.70;101077.53;5064062;28;1306;-61
2022/10/09 10:23:38;;;;;;;;;;;;;;;17.50;48.82;101095.63;5071059;28;1982;-61
2022/10/09 10:26:27;;;;;;;;;;;;;;;17.28;48.34;101091.19;5059491;28;1207;-61
2022/10/09 10:29:08;;;;;;;;;;;;;;;17.08;48.10;101090.03;5059513;28;2001;-62
2022/10/09 10:31:33;;;;;;;;;;;;;;;17.13;47.45;101094.72;5052305;28;1250;-60
2022/10/09 10:33:58;;;;;;;;;;;;;;;17.05;47.00;101098.78;5078603;28;1268;-60
2022/10/09 10:36:24;;;;;;;;;;;;;;;17.64;47.85;101098.66;5060795;28;1187;-60
2022/10/09 10:38:54;;;;;;;;;;;;;;;17.65;48.82;101092.91;5060478;28;1329;-61
2022/10/09 10:41:25;;;;;;;;;;;;;;;17.35;48.42;101080.75;5060372;28;1972;-61
2022/10/09 10:43:52;;;;;;;;;;;;;;;17.22;47.95;101073.00;5078291;28;1320;-60
2022/10/09 10:46:21;;;;;;;;;;;;;;;17.12;47.53;101084.00;5060787;28;1178;-61
2022/10/09 10:48:47;;;;;;;;;;;;;;;18.23;47.91;101083.56;5079210;28;1250;-58
2022/10/09 10:51:12;;;;;;;;;;;;;;;17.47;48.65;101079.69;5078756;28;1087;-58
2022/10/09 10:53:49;;;;;;;;;;;;;;;17.34;48.25;101081.84;5079291;28;1110;-56
2022/10/09 10:56:35;;;;;;;;;;;;;;;17.22;47.73;101073.84;5078593;28;878;-62
2022/10/09 10:59:07;;;;;;;;;;;;;;;18.13;48.19;101070.63;5074277;28;2121;-58
2022/10/09 11:01:36;;;;;;;;;;;;;;;17.48;48.65;101071.16;5079391;28;1956;-60
2022/10/09 11:04:10;;;;;;;;;;;;;;;17.35;48.24;101055.16;5047004;28;1147;-57
2022/10/09 11:06:42;;;;;;;;;;;;;;;17.22;47.67;101062.88;5078264;28;1139;-58
2022/10/09 11:09:13;;;;;;;;;;;;;;;17.18;47.17;101063.66;5078584;28;1127;-60
2022/10/09 11:11:40;;;;;;;;;;;;;;;17.07;47.01;101063.63;5060931;28;1111;-57
2022/10/09 11:14:23;;;;;;;;;;;;;;;17.90;48.23;101058.25;5060767;28;1187;-56
2022/10/09 11:17:00;;;;;;;;;;;;;;;17.38;48.37;101060.97;5060687;28;1131;-60
2022/10/09 11:19:39;;;;;;;;;;;;;;;17.22;47.82;101056.53;5078149;28;1189;-58
2022/10/09 11:22:17;;;;;;;;;;;;;;;17.19;47.35;101052.38;5060452;28;1980;-59
2022/10/09 11:24:43;;;;;;;;;;;;;;;17.10;47.06;101056.78;5060381;28;1107;-58
2022/10/09 11:27:08;;;;;;;;;;;;;;;17.04;46.63;101061.44;5077744;28;1868;-60
2022/10/09 11:29:42;;;;;;;;;;;;;;;18.21;47.40;101050.00;5063836;28;1197;-57
2022/10/09 11:32:31;;;;;;;;;;;;;;;17.48;48.28;101043.66;5060330;28;966;-57
2022/10/09 11:35:05;;;;;;;;;;;;;;;17.33;47.68;101044.44;5068346;28;1249;-58
2022/10/09 11:37:33;;;;;;;;;;;;;;;17.10;47.77;101049.34;5077994;28;1143;-60
2022/10/09 11:40:00;;;;;;;;;;;;;;;17.82;48.21;101047.81;5078041;28;1138;-58
2022/10/09 11:42:26;;;;;;;;;;;;;;;17.39;48.67;101051.63;5059975;28;1967;-58
2022/10/09 11:44:54;;;;;;;;;;;;;;;17.32;47.78;101051.06;5059838;28;929;-58
2022/10/09 11:47:29;;;;;;;;;;;;;;;17.15;47.49;101059.53;5078015;28;1071;-55
2022/10/09 11:50:13;;;;;;;;;;;;;;;18.17;47.75;101059.91;5077512;28;1390;-56
2022/10/09 11:52:57;;;;;;;;;;;;;;;17.49;48.59;101066.47;5077882;28;1090;-56
2022/10/09 11:55:24;;;;;;;;;;;;;;;17.35;47.74;101055.16;5077453;28;1107;-57
2022/10/09 11:57:49;;;;;;;;;;;;;;;17.23;47.45;101053.50;5057421;28;1952;-60
2022/10/09 12:00:15;;;;;;;;;;;;;;;17.13;47.16;101048.00;5057097;28;1289;-61
2022/10/09 12:02:40;;;;;;;;;;;;;;;17.94;48.03;101059.41;5059786;28;1909;-62
2022/10/09 12:05:24;;;;;;;;;;;;;;;17.45;48.31;101058.78;5057220;28;1256;-61
2022/10/09 12:07:50;;;;;;;;;;;;;;;17.33;47.87;101051.88;5065221;28;1207;-62
2022/10/09 12:10:24;;;;;;;;;;;;;;;18.15;48.02;101062.13;5057349;28;1285;-62
2022/10/09 12:13:03;;;;;;;;;;;;;;;17.61;48.79;101064.28;5039348;28;1226;-58
2022/10/09 12:15:34;;;;;;;;;;;;;;;17.39;48.21;101067.28;5070193;28;1119;-58
2022/10/09 12:18:00;;;;;;;;;;;;;;;17.43;47.76;101069.22;5077521;28;1115;-58
2022/10/09 12:20:25;;;;;;;;;;;;;;;17.82;48.55;101059.63;5076736;28;852;-57
2022/10/09 12:22:52;;;;;;;;;;;;;;;17.50;48.36;101062.63;5059105;28;1998;-59
2022/10/09 12:25:21;;;;;;;;;;;;;;;17.35;47.69;101068.91;5050338;28;1047;-58
2022/10/09 12:27:46;;;;;;;;;;;;;;;17.20;47.42;101067.78;5073101;28;2010;-61
2022/10/09 12:30:12;;;;;;;;;;;;;;;17.23;47.26;101066.44;5076755;28;1465;-60
2022/10/09 12:32:51;;;;;;;;;;;;;;;17.17;46.95;101078.53;5076826;28;1177;-59
2022/10/09 12:35:21;;;;;;;;;;;;;;;17.16;46.65;101061.19;5046771;28;1092;-58
2022/10/09 12:37:46;;;;;;;;;;;;;;;18.17;47.42;101077.25;5076806;28;1103;-60
2022/10/09 12:40:16;;;;;;;;;;;;;;;17.42;48.45;101078.56;5056869;28;1147;-58
2022/10/09 12:42:42;;;;;;;;;;;;;;;17.30;48.11;101079.91;5061286;28;1906;-60
2022/10/09 12:45:17;;;;;;;;;;;;;;;17.24;47.54;101082.66;5054689;28;933;-59
2022/10/09 12:47:42;;;;;;;;;;;;;;;17.17;47.08;101073.84;5058943;28;1092;-60
2022/10/09 12:50:10;;;;;;;;;;;;;;;17.84;48.04;101068.44;5059440;28;1131;-58